Ana Sayfa
METAR-TAF:

METAR-TAF

Havaalanları :

McCarran Uluslararası Havalimanı

Las Vegas, Nevada, Amerika Birleşik Devletleri

Enlem: 36-04-44N, Boylam: 115-09-19W, yükseklik: 663 m

Güncel hava durumu gözlemi

Rapor saat 15:56 UTC de 17 dakika önce yapıldı.
Sakin rüzgar
Sıcaklık 16°C
Nem 25%
Basınç 1009 hPa
Görüş mesafesi: 16.1 km
Açık gökyüzü

METAR: KLAS 041556Z 00000KT 10SM CLR 16/M04 A2981 RMK AO2 SLP082 T01561039 $

Saat: 09:13 (16:13 UTC)

Tahmin

Rapor saat 15:03 UTC de 1 saat ve 10 dakika önce yapıldı.
Ayın 04'si saat 15 UTC'den ayın 05'si saat 18 UTC'ye kadar geçerli Tahmin
Rüzgar değişken yönden 6 kt
Görüş mesafesi: 10 km
25000 ft yükseklikte az bulutlu
Ayın 04'si saat 2100 UTC'den
Rüzgar güney/güneybatıdan 15 kt ve 25 kt'a kadar ani rüzgarlar
Görüş mesafesi: 10 km
20000 ft yükseklikte parçalı bulutlu
25000 ft yükseklikte parçalı bulutlu

TAF: KLAS 041503Z 0415/0518 VRB06KT P6SM FEW250 FM042100 21015G25KT P6SM SCT200 SCT250

4.000'den fazla havaalanı için hava durumu gözlemleri ve tahminleri (METAR ve TAF raporları).

Kullanılabilir istasyonlar harita üzerinde sarı ve kırmızı noktalarla gösterilir.

İstasyonun adını görmek için fareyi noktanın üzerinde gezdirin.

Sonrasında hava gözlem ve tahminlerini görmek için tıklayın.

Haritayı değiştirmek için: yaklaştırmak için siyah artı işaretli yeşil düğmeye ve uzaklaştırmak için de eksi işaretli düğmeye hızla tıklayın; bitişik haritalar için yeşil okları kullanın.


METAR-TAF: